Time;durP1;ratioP1;P1;durP2;ratioP2;P2;SDS_P1;SDS_P2;PMS_P1;PMS_P2;Temp;Humidity;BMP_temperature;BMP_pressure;BME280_temperature;BME280_humidity;BME280_pressure;Samples;Min_cycle;Max_cycle;Signal;HPM_P1;HPM_P2
2021/08/13 00:00:25;;;;;;;;;;;;;;;;;;4934216;28;19923;-81
2021/08/13 00:02:51;;;;;;;;;;;;;;;;;;4941165;28;19978;-80
2021/08/13 00:05:18;;;;;;;;;;;;;;;;;;4938307;28;19966;-80
2021/08/13 00:07:44;;;;;;;;;;;;;;;;;;4944854;28;19954;-80
2021/08/13 00:10:10;;;;;;;;;;;;;;;;;;4942685;28;20034;-81
2021/08/13 00:12:37;;;;;;;;;;;;;;;;;;4943236;28;19961;-81
2021/08/13 00:15:03;;;;;;;;;;;;;;;;;;4939131;28;19954;-81
2021/08/13 00:17:29;;;;;;;;;;;;;;;;;;4941121;28;19922;-80
2021/08/13 00:19:55;;;;;;;;;;;;;;;;;;4942830;28;19984;-81
2021/08/13 00:22:22;;;;;;;;;;;;;;;;;;4931733;28;19966;-80
2021/08/13 00:24:48;;;;;;;;;;;;;;;;;;4940165;28;19923;-80
2021/08/13 00:27:14;;;;;;;;;;;;;;;;;;4941172;28;19966;-80
2021/08/13 00:29:40;;;;;;;;;;;;;;;;;;4939427;28;20014;-79
2021/08/13 00:32:06;;;;;;;;;;;;;;;;;;4948855;28;19958;-80
2021/08/13 00:34:33;;;;;;;;;;;;;;;;;;4944585;28;20010;-80
2021/08/13 00:36:59;;;;;;;;;;;;;;;;;;4935847;28;19972;-80
2021/08/13 00:39:25;;;;;;;;;;;;;;;;;;4915643;29;19993;-80
2021/08/13 00:41:51;;;;;;;;;;;;;;;;;;4943912;28;20001;-80
2021/08/13 00:44:17;;;;;;;;;;;;;;;;;;4943861;28;20433;-80
2021/08/13 00:46:44;;;;;;;;;;;;;;;;;;4943152;28;19958;-80
2021/08/13 00:49:10;;;;;;;;;;;;;;;;;;4942558;28;19958;-80
2021/08/13 00:51:36;;;;;;;;;;;;;;;;;;4944667;28;19997;-79
2021/08/13 00:54:02;;;;;;;;;;;;;;;;;;4945403;28;19961;-78
2021/08/13 00:56:28;;;;;;;;;;;;;;;;;;4940599;28;20033;-80
2021/08/13 00:58:55;;;;;;;;;;;;;;;;;;4945021;28;19954;-80
2021/08/13 01:01:21;;;;;;;;;;;;;;;;;;4946045;28;19956;-80
2021/08/13 01:03:47;;;;;;;;;;;;;;;;;;4927333;28;19954;-80
2021/08/13 01:06:13;;;;;;;;;;;;;;;;;;4944937;28;19972;-80
2021/08/13 01:08:39;;;;;;;;;;;;;;;;;;4918034;28;20383;-80
2021/08/13 01:11:06;;;;;;;;;;;;;;;;;;4942527;28;19954;-81
2021/08/13 01:13:32;;;;;;;;;;;;;;;;;;4943979;28;19954;-80
2021/08/13 01:15:58;;;;;;;;;;;;;;;;;;4931953;28;19950;-79
2021/08/13 01:18:24;;;;;;;;;;;;;;;;;;4924745;29;19962;-80
2021/08/13 01:20:50;;;;;;;;;;;;;;;;;;4921015;29;19923;-81
2021/08/13 01:23:17;;;;;;;;;;;;;;;;;;4926798;29;20397;-80
2021/08/13 01:25:43;;;;;;;;;;;;;;;;;;4941081;29;19963;-81
2021/08/13 01:28:09;;;;;;;;;;;;;;;;;;4936637;29;19966;-79
2021/08/13 01:30:35;;;;;;;;;;;;;;;;;;4940782;28;19962;-82
2021/08/13 01:33:03;;;;;;;;;;;;;;;;;;4942926;28;20398;-82
2021/08/13 01:35:30;;;;;;;;;;;;;;;;;;4942872;28;20427;-82
2021/08/13 01:37:56;;;;;;;;;;;;;;;;;;4948420;28;19968;-82
2021/08/13 01:40:22;;;;;;;;;;;;;;;;;;4945682;28;19966;-82
2021/08/13 01:42:48;;;;;;;;;;;;;;;;;;4936809;28;20552;-82
2021/08/13 01:45:14;;;;;;;;;;;;;;;;;;4940552;29;20442;-82
2021/08/13 01:47:41;;;;;;;;;;;;;;;;;;4908511;28;19957;-81
2021/08/13 01:50:07;;;;;;;;;;;;;;;;;;4939893;28;19994;-81
2021/08/13 01:52:33;;;;;;;;;;;;;;;;;;4949297;28;19958;-81
2021/08/13 01:54:59;;;;;;;;;;;;;;;;;;4944099;28;20633;-81
2021/08/13 01:57:25;;;;;;;;;;;;;;;;;;4945149;28;19956;-82
2021/08/13 01:59:52;;;;;;;;;;;;;;;;;;4946708;28;19929;-82
2021/08/13 02:02:18;;;;;;;;;;;;;;;;;;4950558;28;19976;-83
2021/08/13 02:04:45;;;;;;;;;;;;;;;;;;4935944;28;19950;-83
2021/08/13 02:07:11;;;;;;;;;;;;;;;;;;4950569;28;19953;-82
2021/08/13 02:09:37;;;;;;;;;;;;;;;;;;4958289;28;20540;-82
2021/08/13 02:12:03;;;;;;;;;;;;;;;;;;4945695;28;20382;-81
2021/08/13 02:14:29;;;;;;;;;;;;;;;;;;4939897;28;19954;-82
2021/08/13 02:16:55;;;;;;;;;;;;;;;;;;4946011;28;20403;-82
2021/08/13 02:19:22;;;;;;;;;;;;;;;;;;4947620;28;20056;-82
2021/08/13 02:21:48;;;;;;;;;;;;;;;;;;4944306;28;19966;-83
2021/08/13 02:24:17;;;;;;;;;;;;;;;;;;4941918;29;19969;-83
2021/08/13 02:26:43;;;;;;;;;;;;;;;;;;4935460;28;19965;-83
2021/08/13 02:29:11;;;;;;;;;;;;;;;;;;4946284;28;19981;-82
2021/08/13 02:31:37;;;;;;;;;;;;;;;;;;4951203;28;19966;-84
2021/08/13 02:34:03;;;;;;;;;;;;;;;;;;4941310;28;19958;-81
2021/08/13 02:36:30;;;;;;;;;;;;;;;;;;4935123;28;19942;-83
2021/08/13 02:38:56;;;;;;;;;;;;;;;;;;4938927;28;20955;-81
2021/08/13 02:41:22;;;;;;;;;;;;;;;;;;4930283;28;20062;-82
2021/08/13 02:43:48;;;;;;;;;;;;;;;;;;4950196;28;19992;-82
2021/08/13 02:46:15;;;;;;;;;;;;;;;;;;4943164;29;19969;-82
2021/08/13 02:48:42;;;;;;;;;;;;;;;;;;4931515;29;19977;-82
2021/08/13 02:51:08;;;;;;;;;;;;;;;;;;4939499;28;19994;-82
2021/08/13 02:53:34;;;;;;;;;;;;;;;;;;4945891;28;19972;-82
2021/08/13 02:56:03;;;;;;;;;;;;;;;;;;4950410;28;19957;-81
2021/08/13 02:58:29;;;;;;;;;;;;;;;;;;4944413;28;19962;-81
2021/08/13 03:00:56;;;;;;;;;;;;;;;;;;4947401;28;19962;-82
2021/08/13 03:03:22;;;;;;;;;;;;;;;;;;4949413;28;20402;-82
2021/08/13 03:05:48;;;;;;;;;;;;;;;;;;4946824;28;19969;-82
2021/08/13 03:08:14;;;;;;;;;;;;;;;;;;4949191;28;19946;-82
2021/08/13 03:10:40;;;;;;;;;;;;;;;;;;4942211;28;19961;-82
2021/08/13 03:13:07;;;;;;;;;;;;;;;;;;4934455;28;20322;-81
2021/08/13 03:15:33;;;;;;;;;;;;;;;;;;4938253;28;19989;-83
2021/08/13 03:17:59;;;;;;;;;;;;;;;;;;4940479;28;19969;-82
2021/08/13 03:20:25;;;;;;;;;;;;;;;;;;4950194;28;19950;-82
2021/08/13 03:22:51;;;;;;;;;;;;;;;;;;4931762;29;20010;-82
2021/08/13 03:25:18;;;;;;;;;;;;;;;;;;4943907;28;19927;-82
2021/08/13 03:27:44;;;;;;;;;;;;;;;;;;4944160;28;19972;-81
2021/08/13 03:30:10;;;;;;;;;;;;;;;;;;4941578;28;20442;-82
2021/08/13 03:32:36;;;;;;;;;;;;;;;;;;4943256;28;19933;-81
2021/08/13 03:35:03;;;;;;;;;;;;;;;;;;4939867;28;19991;-81
2021/08/13 03:37:30;;;;;;;;;;;;;;;;;;4945380;28;20395;-81
2021/08/13 03:39:57;;;;;;;;;;;;;;;;;;4934304;28;19965;-81
2021/08/13 03:42:23;;;;;;;;;;;;;;;;;;4935594;28;19965;-83
2021/08/13 03:44:49;;;;;;;;;;;;;;;;;;4931417;28;19930;-82
2021/08/13 03:47:16;;;;;;;;;;;;;;;;;;4927662;29;20017;-82
2021/08/13 03:49:42;;;;;;;;;;;;;;;;;;4941121;28;19949;-81
2021/08/13 03:52:08;;;;;;;;;;;;;;;;;;4935704;28;19957;-80
2021/08/13 03:54:34;;;;;;;;;;;;;;;;;;4945555;28;20057;-83
2021/08/13 03:57:01;;;;;;;;;;;;;;;;;;4943436;28;19962;-82
2021/08/13 03:59:27;;;;;;;;;;;;;;;;;;4931972;28;19950;-82
2021/08/13 04:01:53;;;;;;;;;;;;;;;;;;4947322;28;19970;-82
2021/08/13 04:04:19;;;;;;;;;;;;;;;;;;4938515;28;19951;-82
2021/08/13 04:06:45;;;;;;;;;;;;;;;;;;4934585;28;19974;-82
2021/08/13 04:09:12;;;;;;;;;;;;;;;;;;4947206;28;19965;-82
2021/08/13 04:11:38;;;;;;;;;;;;;;;;;;4928182;29;19959;-81
2021/08/13 04:14:04;;;;;;;;;;;;;;;;;;4946010;28;19976;-80
2021/08/13 04:16:30;;;;;;;;;;;;;;;;;;4940636;28;19968;-81
2021/08/13 04:18:56;;;;;;;;;;;;;;;;;;4945044;28;19957;-81
2021/08/13 04:21:22;;;;;;;;;;;;;;;;;;4939697;28;19919;-80
2021/08/13 04:23:49;;;;;;;;;;;;;;;;;;4941456;28;19973;-81
2021/08/13 04:26:15;;;;;;;;;;;;;;;;;;4943802;28;19950;-80
2021/08/13 04:28:41;;;;;;;;;;;;;;;;;;4941895;28;19919;-80
2021/08/13 04:31:07;;;;;;;;;;;;;;;;;;4943647;28;19965;-80
2021/08/13 04:33:34;;;;;;;;;;;;;;;;;;4929017;29;19974;-82
2021/08/13 04:36:01;;;;;;;;;;;;;;;;;;4946912;28;19956;-82
2021/08/13 04:38:27;;;;;;;;;;;;;;;;;;4940956;28;20379;-81
2021/08/13 04:40:53;;;;;;;;;;;;;;;;;;4952081;28;19968;-82
2021/08/13 04:43:19;;;;;;;;;;;;;;;;;;4927561;28;19976;-81
2021/08/13 04:45:45;;;;;;;;;;;;;;;;;;4939158;29;19954;-81
2021/08/13 04:48:12;;;;;;;;;;;;;;;;;;4938889;28;19966;-81
2021/08/13 04:50:38;;;;;;;;;;;;;;;;;;4943545;28;20690;-80
2021/08/13 04:53:04;;;;;;;;;;;;;;;;;;4923502;28;19961;-79
2021/08/13 04:55:30;;;;;;;;;;;;;;;;;;4952673;28;19919;-82
2021/08/13 04:57:56;;;;;;;;;;;;;;;;;;4942602;28;19962;-81
2021/08/13 05:00:23;;;;;;;;;;;;;;;;;;4932706;28;19974;-81
2021/08/13 05:02:49;;;;;;;;;;;;;;;;;;4946112;28;20363;-81
2021/08/13 05:05:15;;;;;;;;;;;;;;;;;;4949759;28;19957;-82
2021/08/13 05:07:41;;;;;;;;;;;;;;;;;;4931230;29;19927;-81
2021/08/13 05:10:08;;;;;;;;;;;;;;;;;;4941078;28;19974;-80
2021/08/13 05:12:34;;;;;;;;;;;;;;;;;;4941659;28;19973;-81
2021/08/13 05:15:00;;;;;;;;;;;;;;;;;;4945526;28;19923;-79
2021/08/13 05:17:26;;;;;;;;;;;;;;;;;;4936256;28;19961;-80
2021/08/13 05:19:52;;;;;;;;;;;;;;;;;;4936914;29;20005;-80
2021/08/13 05:22:19;;;;;;;;;;;;;;;;;;4928828;29;20031;-79
2021/08/13 05:24:45;;;;;;;;;;;;;;;;;;4943339;28;19923;-80
2021/08/13 05:27:11;;;;;;;;;;;;;;;;;;4952189;28;20256;-80
2021/08/13 05:29:37;;;;;;;;;;;;;;;;;;4937996;28;19985;-82
2021/08/13 05:32:03;;;;;;;;;;;;;;;;;;4936936;28;19954;-78
2021/08/13 05:34:30;;;;;;;;;;;;;;;;;;4942663;28;19958;-79
2021/08/13 05:36:56;;;;;;;;;;;;;;;;;;4933254;29;19965;-79
2021/08/13 05:39:22;;;;;;;;;;;;;;;;;;4933258;29;20001;-79
2021/08/13 05:41:48;;;;;;;;;;;;;;;;;;4931350;29;19954;-80
2021/08/13 05:44:15;;;;;;;;;;;;;;;;;;4933581;28;19980;-80
2021/08/13 05:46:41;;;;;;;;;;;;;;;;;;4931020;28;19958;-80
2021/08/13 05:49:07;;;;;;;;;;;;;;;;;;4938589;28;19966;-79
2021/08/13 05:51:33;;;;;;;;;;;;;;;;;;4947295;28;19931;-79
2021/08/13 05:53:59;;;;;;;;;;;;;;;;;;4942535;28;19955;-80
2021/08/13 05:56:26;;;;;;;;;;;;;;;;;;4939061;29;20004;-80
2021/08/13 05:58:53;;;;;;;;;;;;;;;;;;4932742;29;19962;-81
2021/08/13 06:01:19;;;;;;;;;;;;;;;;;;4942886;28;20603;-80
2021/08/13 06:03:46;;;;;;;;;;;;;;;;;;4948915;28;20014;-82
2021/08/13 06:06:12;;;;;;;;;;;;;;;;;;4940015;28;19974;-82
2021/08/13 06:08:38;;;;;;;;;;;;;;;;;;4919684;28;20342;-80
2021/08/13 06:11:04;;;;;;;;;;;;;;;;;;4941928;29;19923;-80
2021/08/13 06:13:30;;;;;;;;;;;;;;;;;;4945019;28;19978;-79
2021/08/13 06:15:57;;;;;;;;;;;;;;;;;;4941922;28;19926;-79
2021/08/13 06:18:23;;;;;;;;;;;;;;;;;;4931073;28;20294;-79
2021/08/13 06:20:49;;;;;;;;;;;;;;;;;;4942827;29;19926;-81
2021/08/13 06:23:15;;;;;;;;;;;;;;;;;;4936059;28;20044;-80
2021/08/13 06:25:42;;;;;;;;;;;;;;;;;;4938607;28;19953;-79
2021/08/13 06:28:08;;;;;;;;;;;;;;;;;;4942594;28;19926;-81
2021/08/13 06:30:34;;;;;;;;;;;;;;;;;;4936242;28;20410;-79
2021/08/13 06:33:00;;;;;;;;;;;;;;;;;;4940391;28;20286;-79
2021/08/13 06:35:27;;;;;;;;;;;;;;;;;;4948875;28;20359;-80
2021/08/13 06:37:54;;;;;;;;;;;;;;;;;;4945250;28;19946;-79
2021/08/13 06:40:20;;;;;;;;;;;;;;;;;;4943150;28;19950;-79
2021/08/13 06:42:46;;;;;;;;;;;;;;;;;;4939349;28;19962;-79
2021/08/13 06:45:12;;;;;;;;;;;;;;;;;;4947747;28;20021;-81
2021/08/13 06:47:38;;;;;;;;;;;;;;;;;;4938820;29;20379;-79
2021/08/13 06:50:05;;;;;;;;;;;;;;;;;;4942428;29;19922;-79
2021/08/13 06:52:31;;;;;;;;;;;;;;;;;;4938359;28;19981;-80
2021/08/13 06:54:57;;;;;;;;;;;;;;;;;;4933586;29;20413;-80
2021/08/13 06:57:23;;;;;;;;;;;;;;;;;;4945270;28;19961;-80
2021/08/13 06:59:49;;;;;;;;;;;;;;;;;;4941072;28;20366;-79
2021/08/13 07:02:16;;;;;;;;;;;;;;;;;;4930661;28;19926;-79
2021/08/13 07:04:42;;;;;;;;;;;;;;;;;;4945697;28;20367;-79
2021/08/13 07:07:08;;;;;;;;;;;;;;;;;;4934752;28;19958;-79
2021/08/13 07:09:34;;;;;;;;;;;;;;;;;;4942950;28;20000;-80
2021/08/13 07:12:00;;;;;;;;;;;;;;;;;;4935885;29;19969;-79
2021/08/13 07:14:27;;;;;;;;;;;;;;;;;;4943957;28;19961;-79
2021/08/13 07:16:53;;;;;;;;;;;;;;;;;;4915058;29;20023;-80
2021/08/13 07:19:19;;;;;;;;;;;;;;;;;;4942440;28;19958;-80
2021/08/13 07:21:45;;;;;;;;;;;;;;;;;;4949314;28;20370;-79
2021/08/13 07:24:12;;;;;;;;;;;;;;;;;;4945650;28;20354;-79
2021/08/13 07:26:38;;;;;;;;;;;;;;;;;;4942457;28;19958;-80
2021/08/13 07:29:04;;;;;;;;;;;;;;;;;;4941131;28;19962;-78
2021/08/13 07:31:30;;;;;;;;;;;;;;;;;;4932212;28;20366;-80
2021/08/13 07:33:56;;;;;;;;;;;;;;;;;;4944057;28;19954;-80
2021/08/13 07:36:25;;;;;;;;;;;;;;;;;;4942778;28;20343;-80
2021/08/13 07:38:51;;;;;;;;;;;;;;;;;;4942997;28;19978;-80
2021/08/13 07:41:17;;;;;;;;;;;;;;;;;;4943182;28;19958;-80
2021/08/13 07:43:43;;;;;;;;;;;;;;;;;;4932196;29;20415;-80
2021/08/13 07:46:10;;;;;;;;;;;;;;;;;;4937956;28;19986;-79
2021/08/13 07:48:36;;;;;;;;;;;;;;;;;;4939127;28;19958;-79
2021/08/13 07:51:02;;;;;;;;;;;;;;;;;;4936288;28;19953;-79
2021/08/13 07:53:29;;;;;;;;;;;;;;;;;;4944495;28;19954;-79
2021/08/13 07:55:55;;;;;;;;;;;;;;;;;;4948440;28;19968;-79
2021/08/13 07:58:21;;;;;;;;;;;;;;;;;;4938459;28;19922;-80
2021/08/13 08:00:47;;;;;;;;;;;;;;;;;;4941940;29;19954;-79
2021/08/13 08:03:13;;;;;;;;;;;;;;;;;;4934272;28;20034;-79
2021/08/13 08:05:40;;;;;;;;;;;;;;;;;;4936179;28;19954;-79
2021/08/13 08:08:06;;;;;;;;;;;;;;;;;;4933861;29;20076;-78
2021/08/13 08:10:32;;;;;;;;;;;;;;;;;;4937976;28;19962;-78
2021/08/13 08:12:58;;;;;;;;;;;;;;;;;;4944579;28;19968;-79
2021/08/13 08:15:24;;;;;;;;;;;;;;;;;;4940177;28;19966;-79
2021/08/13 08:17:51;;;;;;;;;;;;;;;;;;4927864;29;19985;-78
2021/08/13 08:20:17;;;;;;;;;;;;;;;;;;4939025;28;20520;-78
2021/08/13 08:22:43;;;;;;;;;;;;;;;;;;4943467;28;19994;-78
2021/08/13 08:25:09;;;;;;;;;;;;;;;;;;4943867;28;20340;-78
2021/08/13 08:27:35;;;;;;;;;;;;;;;;;;4935357;28;20009;-78
2021/08/13 08:30:02;;;;;;;;;;;;;;;;;;4935456;29;19954;-79
2021/08/13 08:32:28;;;;;;;;;;;;;;;;;;4941427;28;19953;-79
2021/08/13 08:34:54;;;;;;;;;;;;;;;;;;4940351;28;19919;-79
2021/08/13 08:37:21;;;;;;;;;;;;;;;;;;4939400;28;19958;-79
2021/08/13 08:39:47;;;;;;;;;;;;;;;;;;4946268;28;19957;-79
2021/08/13 08:42:14;;;;;;;;;;;;;;;;;;4939837;28;19965;-79
2021/08/13 08:44:40;;;;;;;;;;;;;;;;;;4939575;29;19951;-79
2021/08/13 08:47:06;;;;;;;;;;;;;;;;;;4938200;28;19950;-78
2021/08/13 08:49:32;;;;;;;;;;;;;;;;;;4943481;28;20483;-78
2021/08/13 08:51:58;;;;;;;;;;;;;;;;;;4946097;28;19982;-79
2021/08/13 08:54:26;;;;;;;;;;;;;;;;;;4944972;28;19962;-78
2021/08/13 08:56:53;;;;;;;;;;;;;;;;;;4943619;28;20451;-78
2021/08/13 08:59:19;;;;;;;;;;;;;;;;;;4938903;28;20224;-78
2021/08/13 09:01:45;;;;;;;;;;;;;;;;;;4924677;28;20099;-78
2021/08/13 09:04:11;;;;;;;;;;;;;;;;;;4936476;28;19958;-78
2021/08/13 09:06:37;;;;;;;;;;;;;;;;;;4941896;28;19984;-79
2021/08/13 09:09:04;;;;;;;;;;;;;;;;;;4940730;28;19954;-79
2021/08/13 09:11:30;;;;;;;;;;;;;;;;;;4941117;28;19965;-79
2021/08/13 09:13:56;;;;;;;;;;;;;;;;;;4938780;28;19954;-79
2021/08/13 09:16:22;;;;;;;;;;;;;;;;;;4936232;29;19981;-78
2021/08/13 09:18:48;;;;;;;;;;;;;;;;;;4934356;28;19954;-78
2021/08/13 09:21:17;;;;;;;;;;;;;;;;;;4930657;29;19965;-78
2021/08/13 09:23:43;;;;;;;;;;;;;;;;;;4943664;28;19958;-79
2021/08/13 09:26:09;;;;;;;;;;;;;;;;;;4942913;28;20382;-80
2021/08/13 09:28:35;;;;;;;;;;;;;;;;;;4943725;28;19966;-79
2021/08/13 09:31:01;;;;;;;;;;;;;;;;;;4929311;29;20291;-80
2021/08/13 09:33:28;;;;;;;;;;;;;;;;;;4940013;29;19949;-79
2021/08/13 09:35:54;;;;;;;;;;;;;;;;;;4938611;28;20346;-79
2021/08/13 09:38:20;;;;;;;;;;;;;;;;;;4924595;29;21130;-79
2021/08/13 09:40:46;;;;;;;;;;;;;;;;;;4926921;29;19965;-79
2021/08/13 09:43:12;;;;;;;;;;;;;;;;;;4943197;28;20005;-78
2021/08/13 09:45:39;;;;;;;;;;;;;;;;;;4940381;28;20343;-79
2021/08/13 09:48:05;;;;;;;;;;;;;;;;;;4940494;29;19965;-78
2021/08/13 09:50:31;;;;;;;;;;;;;;;;;;4942671;28;19957;-78
2021/08/13 09:52:57;;;;;;;;;;;;;;;;;;4941237;28;20021;-79
2021/08/13 09:55:23;;;;;;;;;;;;;;;;;;4931003;28;19960;-79
2021/08/13 09:57:50;;;;;;;;;;;;;;;;;;4943661;28;20351;-78
2021/08/13 10:00:16;;;;;;;;;;;;;;;;;;4927372;29;19973;-78
2021/08/13 10:02:42;;;;;;;;;;;;;;;;;;4941570;28;19954;-78
2021/08/13 10:05:08;;;;;;;;;;;;;;;;;;4936969;28;19958;-78
2021/08/13 10:07:35;;;;;;;;;;;;;;;;;;4933846;28;19971;-79
2021/08/13 10:10:01;;;;;;;;;;;;;;;;;;4937733;28;19942;-79
2021/08/13 10:12:27;;;;;;;;;;;;;;;;;;4943968;28;20560;-79
2021/08/13 10:14:53;;;;;;;;;;;;;;;;;;4944977;28;19958;-78
2021/08/13 10:17:19;;;;;;;;;;;;;;;;;;4945734;28;20311;-78
2021/08/13 10:19:46;;;;;;;;;;;;;;;;;;4948198;29;20115;-79
2021/08/13 10:22:12;;;;;;;;;;;;;;;;;;4942158;28;19981;-78
2021/08/13 10:24:38;;;;;;;;;;;;;;;;;;4930331;29;19966;-79
2021/08/13 10:27:04;;;;;;;;;;;;;;;;;;4943395;28;19962;-79
2021/08/13 10:29:30;;;;;;;;;;;;;;;;;;4931721;29;20009;-79
2021/08/13 10:31:57;;;;;;;;;;;;;;;;;;4932058;28;20394;-79
2021/08/13 10:34:23;;;;;;;;;;;;;;;;;;4947896;28;19978;-79
2021/08/13 10:36:49;;;;;;;;;;;;;;;;;;4946116;28;20418;-79
2021/08/13 10:39:15;;;;;;;;;;;;;;;;;;4945208;28;19950;-80
2021/08/13 10:41:41;;;;;;;;;;;;;;;;;;4936480;28;19965;-78
2021/08/13 10:44:08;;;;;;;;;;;;;;;;;;4940284;28;19974;-78
2021/08/13 10:46:34;;;;;;;;;;;;;;;;;;4941279;29;19977;-78
2021/08/13 10:49:00;;;;;;;;;;;;;;;;;;4943813;28;19954;-78
2021/08/13 10:51:26;;;;;;;;;;;;;;;;;;4939327;28;20394;-78
2021/08/13 10:53:52;;;;;;;;;;;;;;;;;;4941139;28;19965;-79
2021/08/13 10:56:19;;;;;;;;;;;;;;;;;;4944802;28;19954;-78
2021/08/13 10:58:46;;;;;;;;;;;;;;;;;;4935391;28;19954;-78
2021/08/13 11:01:12;;;;;;;;;;;;;;;;;;4942612;29;20365;-79
2021/08/13 11:03:38;;;;;;;;;;;;;;;;;;4941435;28;19962;-79
2021/08/13 11:06:04;;;;;;;;;;;;;;;;;;4937753;28;19988;-78
2021/08/13 11:08:30;;;;;;;;;;;;;;;;;;4937845;28;20032;-79
2021/08/13 11:10:57;;;;;;;;;;;;;;;;;;4931303;28;20390;-79
2021/08/13 11:13:23;;;;;;;;;;;;;;;;;;4935018;28;19969;-79
2021/08/13 11:15:49;;;;;;;;;;;;;;;;;;4936347;29;20422;-80
2021/08/13 11:18:15;;;;;;;;;;;;;;;;;;4936173;28;19970;-79
2021/08/13 11:20:43;;;;;;;;;;;;;;;;;;4936644;29;19942;-79
2021/08/13 11:23:09;;;;;;;;;;;;;;;;;;4941618;28;20054;-78
2021/08/13 11:25:35;;;;;;;;;;;;;;;;;;4942840;28;19974;-79
2021/08/13 11:28:02;;;;;;;;;;;;;;;;;;4931229;29;19954;-77
2021/08/13 11:30:28;;;;;;;;;;;;;;;;;;4935413;28;19993;-79
2021/08/13 11:32:54;;;;;;;;;;;;;;;;;;4934444;28;19969;-79
2021/08/13 11:35:20;;;;;;;;;;;;;;;;;;4937642;28;19950;-78
2021/08/13 11:37:46;;;;;;;;;;;;;;;;;;4940416;28;19954;-78
2021/08/13 11:40:13;;;;;;;;;;;;;;;;;;4942744;28;19974;-80
2021/08/13 11:42:39;;;;;;;;;;;;;;;;;;4933398;28;19969;-78
2021/08/13 11:45:05;;;;;;;;;;;;;;;;;;4923203;29;20001;-78
2021/08/13 11:47:31;;;;;;;;;;;;;;;;;;4923743;29;19946;-78
2021/08/13 11:49:57;;;;;;;;;;;;;;;;;;4941069;29;19972;-79
2021/08/13 11:52:24;;;;;;;;;;;;;;;;;;4940154;28;19930;-79
2021/08/13 11:54:50;;;;;;;;;;;;;;;;;;4931590;29;19996;-78
2021/08/13 11:57:16;;;;;;;;;;;;;;;;;;4937088;29;19958;-78
2021/08/13 11:59:43;;;;;;;;;;;;;;;;;;4944431;28;20026;-80
2021/08/13 12:02:09;;;;;;;;;;;;;;;;;;4929898;28;19962;-78
2021/08/13 12:04:35;;;;;;;;;;;;;;;;;;4926902;29;19961;-78
2021/08/13 12:07:01;;;;;;;;;;;;;;;;;;4941819;29;19958;-79
2021/08/13 12:09:27;;;;;;;;;;;;;;;;;;4938959;28;19945;-78
2021/08/13 12:11:54;;;;;;;;;;;;;;;;;;4935330;29;19991;-78
2021/08/13 12:14:20;;;;;;;;;;;;;;;;;;4941784;28;19962;-78
2021/08/13 12:16:46;;;;;;;;;;;;;;;;;;4937139;28;19958;-78
2021/08/13 12:19:12;;;;;;;;;;;;;;;;;;4940661;28;19958;-77
2021/08/13 12:21:38;;;;;;;;;;;;;;;;;;4934047;29;19962;-77
2021/08/13 12:24:05;;;;;;;;;;;;;;;;;;4925815;29;20575;-77
2021/08/13 12:26:31;;;;;;;;;;;;;;;;;;4907292;29;20008;-78
2021/08/13 12:28:57;;;;;;;;;;;;;;;;;;4926638;29;19958;-77
2021/08/13 12:31:24;;;;;;;;;;;;;;;;;;4933711;29;19978;-78
2021/08/13 12:33:50;;;;;;;;;;;;;;;;;;4940128;28;19968;-78
2021/08/13 12:36:16;;;;;;;;;;;;;;;;;;4933677;29;19962;-78
2021/08/13 12:38:42;;;;;;;;;;;;;;;;;;4934370;28;19965;-78
2021/08/13 12:41:11;;;;;;;;;;;;;;;;;;4939398;29;20442;-78
2021/08/13 12:43:37;;;;;;;;;;;;;;;;;;4941310;28;19962;-78
2021/08/13 12:46:03;;;;;;;;;;;;;;;;;;4936795;28;20407;-78
2021/08/13 12:48:30;;;;;;;;;;;;;;;;;;4933705;28;19974;-79
2021/08/13 12:50:56;;;;;;;;;;;;;;;;;;4935868;28;20021;-78
2021/08/13 12:53:22;;;;;;;;;;;;;;;;;;4942918;28;19961;-78
2021/08/13 12:55:48;;;;;;;;;;;;;;;;;;4931166;28;19973;-78
2021/08/13 12:58:14;;;;;;;;;;;;;;;;;;4934744;28;19958;-77
2021/08/13 13:00:40;;;;;;;;;;;;;;;;;;4919304;29;19957;-77
2021/08/13 13:03:07;;;;;;;;;;;;;;;;;;4924550;28;19977;-77
2021/08/13 13:05:33;;;;;;;;;;;;;;;;;;4945749;29;19978;-78
2021/08/13 13:07:59;;;;;;;;;;;;;;;;;;4934631;29;19953;-78
2021/08/13 13:10:28;;;;;;;;;;;;;;;;;;4935098;28;20390;-78
2021/08/13 13:12:54;;;;;;;;;;;;;;;;;;4929499;29;20053;-78
2021/08/13 13:15:21;;;;;;;;;;;;;;;;;;4941535;28;19927;-80
2021/08/13 13:17:47;;;;;;;;;;;;;;;;;;4944857;29;19922;-80
2021/08/13 13:20:13;;;;;;;;;;;;;;;;;;4943142;28;20017;-80
2021/08/13 13:22:40;;;;;;;;;;;;;;;;;;4940123;28;19993;-84
2021/08/13 13:25:06;;;;;;;;;;;;;;;;;;4935623;28;19961;-79
2021/08/13 13:27:33;;;;;;;;;;;;;;;;;;4939205;28;20013;-80
2021/08/13 13:29:59;;;;;;;;;;;;;;;;;;4945145;28;19918;-79
2021/08/13 13:32:25;;;;;;;;;;;;;;;;;;4944618;28;19946;-78
2021/08/13 13:34:51;;;;;;;;;;;;;;;;;;4928680;29;19946;-79
2021/08/13 13:37:17;;;;;;;;;;;;;;;;;;4944127;28;19962;-79
2021/08/13 13:39:46;;;;;;;;;;;;;;;;;;4944745;28;19968;-80
2021/08/13 13:42:12;;;;;;;;;;;;;;;;;;4926840;29;19957;-79
2021/08/13 13:44:38;;;;;;;;;;;;;;;;;;4933025;28;19962;-80
2021/08/13 13:47:05;;;;;;;;;;;;;;;;;;4936428;28;19929;-80
2021/08/13 13:49:31;;;;;;;;;;;;;;;;;;4931697;29;19957;-80
2021/08/13 13:51:57;;;;;;;;;;;;;;;;;;4945548;28;20028;-79
2021/08/13 13:54:23;;;;;;;;;;;;;;;;;;4944815;28;19965;-79
2021/08/13 13:56:49;;;;;;;;;;;;;;;;;;4940918;29;19969;-80
2021/08/13 13:59:16;;;;;;;;;;;;;;;;;;4941253;28;19965;-79
2021/08/13 14:01:42;;;;;;;;;;;;;;;;;;4928894;29;19965;-80
2021/08/13 14:04:08;;;;;;;;;;;;;;;;;;4931540;28;19969;-81
2021/08/13 14:06:34;;;;;;;;;;;;;;;;;;4939248;28;20763;-81
2021/08/13 14:09:01;;;;;;;;;;;;;;;;;;4918789;28;20330;-83
2021/08/13 14:11:27;;;;;;;;;;;;;;;;;;4943235;28;19965;-82
2021/08/13 14:13:56;;;;;;;;;;;;;;;;;;4941823;28;21048;-82
2021/08/13 14:16:22;;;;;;;;;;;;;;;;;;4939288;28;19954;-81
2021/08/13 14:18:48;;;;;;;;;;;;;;;;;;4932865;28;19977;-80
2021/08/13 14:21:14;;;;;;;;;;;;;;;;;;4936466;28;19966;-80
2021/08/13 14:23:41;;;;;;;;;;;;;;;;;;4932932;28;19974;-80
2021/08/13 14:26:07;;;;;;;;;;;;;;;;;;4946962;28;20335;-79
2021/08/13 14:28:33;;;;;;;;;;;;;;;;;;4940162;28;19922;-80
2021/08/13 14:31:01;;;;;;;;;;;;;;;;;;4942631;28;19954;-80
2021/08/13 14:33:28;;;;;;;;;;;;;;;;;;4941510;28;19966;-80
2021/08/13 14:35:54;;;;;;;;;;;;;;;;;;4954492;28;19922;-80
2021/08/13 14:38:20;;;;;;;;;;;;;;;;;;4931811;29;20363;-78
2021/08/13 14:40:46;;;;;;;;;;;;;;;;;;4943465;28;19962;-79
2021/08/13 14:43:12;;;;;;;;;;;;;;;;;;4926718;29;20052;-80
2021/08/13 14:45:39;;;;;;;;;;;;;;;;;;4940687;28;19968;-80
2021/08/13 14:48:05;;;;;;;;;;;;;;;;;;4935117;29;19957;-80
2021/08/13 14:50:31;;;;;;;;;;;;;;;;;;4938481;28;19929;-80
2021/08/13 14:52:57;;;;;;;;;;;;;;;;;;4930188;29;20677;-80
2021/08/13 14:55:24;;;;;;;;;;;;;;;;;;4935705;28;19966;-81
2021/08/13 14:57:50;;;;;;;;;;;;;;;;;;4936606;28;20359;-80
2021/08/13 15:00:16;;;;;;;;;;;;;;;;;;4933781;28;20848;-79
2021/08/13 15:02:42;;;;;;;;;;;;;;;;;;4930419;28;19946;-79
2021/08/13 15:05:08;;;;;;;;;;;;;;;;;;4935831;28;19976;-78
2021/08/13 15:07:35;;;;;;;;;;;;;;;;;;4940767;29;19969;-78
2021/08/13 15:10:01;;;;;;;;;;;;;;;;;;4941515;29;20005;-78
2021/08/13 15:12:27;;;;;;;;;;;;;;;;;;4937898;28;19958;-78
2021/08/13 15:14:54;;;;;;;;;;;;;;;;;;4937195;28;19958;-77
2021/08/13 15:17:20;;;;;;;;;;;;;;;;;;4940509;28;19986;-81
2021/08/13 15:19:49;;;;;;;;;;;;;;;;;;4925550;29;19962;-77
2021/08/13 15:22:15;;;;;;;;;;;;;;;;;;4925139;28;19969;-77
2021/08/13 15:24:42;;;;;;;;;;;;;;;;;;4936227;29;20720;-78
2021/08/13 15:27:08;;;;;;;;;;;;;;;;;;4940808;28;19984;-78
2021/08/13 15:29:34;;;;;;;;;;;;;;;;;;4939273;28;19989;-77
2021/08/13 15:32:00;;;;;;;;;;;;;;;;;;4940910;28;19969;-77
2021/08/13 15:34:26;;;;;;;;;;;;;;;;;;4936389;28;19984;-77
2021/08/13 15:36:53;;;;;;;;;;;;;;;;;;4935342;28;19962;-77
2021/08/13 15:39:19;;;;;;;;;;;;;;;;;;4943147;29;19974;-76
2021/08/13 15:41:45;;;;;;;;;;;;;;;;;;4943884;28;19958;-77
2021/08/13 15:44:11;;;;;;;;;;;;;;;;;;4926046;29;20027;-77
2021/08/13 15:46:37;;;;;;;;;;;;;;;;;;4916414;28;19955;-76
2021/08/13 15:49:04;;;;;;;;;;;;;;;;;;4938473;28;19969;-76
2021/08/13 15:51:30;;;;;;;;;;;;;;;;;;4942312;28;19954;-77
2021/08/13 15:53:56;;;;;;;;;;;;;;;;;;4939894;28;19961;-77
2021/08/13 15:56:24;;;;;;;;;;;;;;;;;;4937346;28;20453;-76
2021/08/13 15:58:50;;;;;;;;;;;;;;;;;;4947763;28;20351;-77
2021/08/13 16:01:16;;;;;;;;;;;;;;;;;;4939919;28;19958;-77
2021/08/13 16:03:43;;;;;;;;;;;;;;;;;;4931946;28;20375;-77
2021/08/13 16:06:09;;;;;;;;;;;;;;;;;;4946175;28;19965;-76
2021/08/13 16:08:35;;;;;;;;;;;;;;;;;;4944745;28;19982;-76
2021/08/13 16:11:02;;;;;;;;;;;;;;;;;;4944584;28;19957;-77
2021/08/13 16:13:28;;;;;;;;;;;;;;;;;;4941111;28;20028;-77
2021/08/13 16:15:54;;;;;;;;;;;;;;;;;;4935507;28;19958;-77
2021/08/13 16:18:20;;;;;;;;;;;;;;;;;;4924200;29;20607;-77
2021/08/13 16:20:46;;;;;;;;;;;;;;;;;;4941967;28;19958;-77
2021/08/13 16:23:13;;;;;;;;;;;;;;;;;;4934311;28;19970;-77
2021/08/13 16:25:39;;;;;;;;;;;;;;;;;;4934967;28;20334;-77
2021/08/13 16:28:05;;;;;;;;;;;;;;;;;;4930328;29;19961;-76
2021/08/13 16:30:32;;;;;;;;;;;;;;;;;;4937740;28;19961;-76
2021/08/13 16:32:58;;;;;;;;;;;;;;;;;;4933206;29;20020;-77
2021/08/13 16:35:24;;;;;;;;;;;;;;;;;;4937470;28;19969;-77
2021/08/13 16:37:50;;;;;;;;;;;;;;;;;;4937545;28;20308;-77